Time;durP1;ratioP1;P1;durP2;ratioP2;P2;SDS_P1;SDS_P2;PMS_P1;PMS_P2;Temp;Humidity;BMP_temperature;BMP_pressure;BME280_temperature;BME280_humidity;BME280_pressure;Samples;Min_cycle;Max_cycle;Signal;HPM_P1;HPM_P2
2022/07/11 00:01:37;;;;;;;4.43;1.40;;;;;;;26.64;39.17;102117.66;5017490;28;20380;-65
2022/07/11 00:04:02;;;;;;;6.05;1.80;;;;;;;26.64;38.77;102123.16;5017547;28;20030;-65
2022/07/11 00:06:28;;;;;;;3.90;1.48;;;;;;;26.59;38.91;102112.78;5018836;28;20037;-65
2022/07/11 00:08:53;;;;;;;4.82;2.67;;;;;;;26.57;39.01;102119.53;5001168;28;20038;-65
2022/07/11 00:11:19;;;;;;;2.17;1.20;;;;;;;26.57;38.79;102125.03;5018841;28;20116;-65
2022/07/11 00:13:44;;;;;;;7.95;1.63;;;;;;;26.55;39.13;102124.38;5018802;28;20117;-65
2022/07/11 00:16:10;;;;;;;1.95;1.42;;;;;;;26.50;39.32;102118.63;5018626;28;20041;-65
2022/07/11 00:18:35;;;;;;;8.35;1.85;;;;;;;26.49;39.37;102127.94;5017489;28;20029;-65
2022/07/11 00:21:00;;;;;;;1.98;1.27;;;;;;;26.47;39.50;102130.03;5018637;28;20057;-65
2022/07/11 00:23:26;;;;;;;2.35;1.52;;;;;;;26.45;39.04;102126.66;5001072;28;20036;-65
2022/07/11 00:25:52;;;;;;;2.88;1.42;;;;;;;26.40;39.18;102124.50;5017390;28;20508;-65
2022/07/11 00:28:17;;;;;;;2.97;1.50;;;;;;;26.38;39.45;102120.28;5001043;28;20116;-65
2022/07/11 00:30:42;;;;;;;4.72;1.45;;;;;;;26.38;39.30;102125.75;5017183;28;20478;-65
2022/07/11 00:33:08;;;;;;;2.78;1.38;;;;;;;26.35;39.50;102118.78;5018651;28;20091;-65
2022/07/11 00:35:33;;;;;;;3.75;1.40;;;;;;;26.36;39.62;102116.84;5015656;28;20034;-65
2022/07/11 00:37:58;;;;;;;5.07;1.33;;;;;;;26.33;39.42;102122.75;4997861;28;20450;-65
2022/07/11 00:40:24;;;;;;;16.33;1.70;;;;;;;26.33;39.12;102111.75;4997713;28;20029;-65
2022/07/11 00:42:49;;;;;;;3.95;2.05;;;;;;;26.32;39.44;102116.44;5014068;28;20491;-64
2022/07/11 00:45:15;;;;;;;3.20;1.52;;;;;;;26.30;40.00;102117.69;5014095;28;20026;-64
2022/07/11 00:47:40;;;;;;;3.40;1.40;;;;;;;26.31;39.89;102111.13;5014068;28;20121;-65
2022/07/11 00:50:05;;;;;;;4.03;1.52;;;;;;;26.30;39.70;102107.50;5013886;28;20033;-65
2022/07/11 00:52:32;;;;;;;3.38;1.42;;;;;;;26.29;39.87;102104.97;5013125;28;20101;-65
2022/07/11 00:54:57;;;;;;;3.50;1.50;;;;;;;26.30;39.73;102106.69;5013962;28;20029;-65
2022/07/11 00:57:23;;;;;;;6.53;1.75;;;;;;;26.28;40.03;102108.78;4994233;28;20377;-65
2022/07/11 00:59:48;;;;;;;6.20;1.90;;;;;;;26.26;39.84;102102.63;4994352;28;20073;-65
2022/07/11 01:02:13;;;;;;;5.80;1.52;;;;;;;26.26;39.86;102105.38;4977950;28;20062;-65
2022/07/11 01:04:39;;;;;;;4.40;1.73;;;;;;;26.25;39.91;102104.53;4977893;28;20117;-64
2022/07/11 01:07:04;;;;;;;6.43;1.83;;;;;;;26.24;40.04;102094.59;4995228;28;20389;-65
2022/07/11 01:09:31;;;;;;;3.33;2.10;;;;;;;26.22;40.00;102093.06;4994152;28;20062;-65
2022/07/11 01:11:57;;;;;;;4.10;1.75;;;;;;;26.20;39.97;102096.03;4994045;28;20018;-65
2022/07/11 01:14:23;;;;;;;3.42;1.60;;;;;;;26.19;40.14;102096.22;4994498;28;20037;-65
2022/07/11 01:16:51;;;;;;;6.20;1.80;;;;;;;26.17;40.29;102092.84;4995228;28;20113;-65
2022/07/11 01:19:16;;;;;;;3.50;1.50;;;;;;;26.15;40.10;102086.72;4978109;28;20030;-65
2022/07/11 01:21:43;;;;;;;3.53;1.58;;;;;;;26.12;40.40;102087.06;4993849;28;20106;-64
2022/07/11 01:24:09;;;;;;;7.35;1.83;;;;;;;26.05;40.52;102082.38;4993914;28;20026;-65
2022/07/11 01:26:35;;;;;;;3.28;1.80;;;;;;;26.01;40.56;102081.09;4977631;28;20048;-65
2022/07/11 01:29:09;;;;;;;2.75;1.90;;;;;;;26.00;40.71;102089.50;4993592;28;20034;-65
2022/07/11 01:31:35;;;;;;;3.92;1.40;;;;;;;25.97;40.49;102085.28;4993437;28;20124;-65
2022/07/11 01:34:01;;;;;;;2.85;1.77;;;;;;;25.92;40.66;102086.91;4993584;28;20105;-65
2022/07/11 01:36:26;;;;;;;9.00;1.90;;;;;;;25.89;40.85;102093.66;4994703;28;20038;-65
2022/07/11 01:38:51;;;;;;;6.50;1.80;;;;;;;25.82;40.54;102087.28;4994917;28;20083;-64
2022/07/11 01:41:17;;;;;;;3.25;1.65;;;;;;;25.77;40.41;102084.25;4994618;28;20034;-65
2022/07/11 01:43:42;;;;;;;3.13;1.55;;;;;;;25.72;40.50;102083.16;4994544;28;20062;-65
2022/07/11 01:46:07;;;;;;;3.63;1.90;;;;;;;25.65;40.94;102074.88;4993332;28;20026;-65
2022/07/11 01:48:33;;;;;;;8.20;1.42;;;;;;;25.57;40.72;102072.28;4993278;28;20446;-65
2022/07/11 01:50:58;;;;;;;5.07;1.65;;;;;;;25.52;40.96;102085.72;4960865;28;20026;-65
2022/07/11 01:53:24;;;;;;;4.13;1.73;;;;;;;25.44;41.16;102083.94;4993210;28;20097;-64
2022/07/11 01:55:49;;;;;;;8.75;1.75;;;;;;;25.38;40.57;102086.59;4993130;28;20030;-64
2022/07/11 01:58:15;;;;;;;3.75;2.08;;;;;;;25.33;40.94;102089.06;4993985;28;20117;-64
2022/07/11 02:00:40;;;;;;;4.07;1.95;;;;;;;25.28;41.36;102094.31;4995073;28;20022;-65
2022/07/11 02:03:05;;;;;;;4.00;1.88;;;;;;;25.25;40.87;102090.06;5010008;28;20172;-65
2022/07/11 02:05:31;;;;;;;5.55;2.58;;;;;;;25.15;41.66;102080.44;4995042;28;20038;-64
2022/07/11 02:08:11;;;;;;;4.90;2.15;;;;;;;25.19;41.48;102095.47;4993728;28;20121;-65
2022/07/11 02:10:38;;;;;;;2.40;1.95;;;;;;;25.15;41.26;102083.19;4995665;28;20184;-65
2022/07/11 02:13:03;;;;;;;7.07;2.60;;;;;;;25.11;41.25;102076.38;4993686;28;20114;-65
2022/07/11 02:15:29;;;;;;;6.18;1.85;;;;;;;25.11;41.73;102093.69;4993808;28;20120;-65
2022/07/11 02:17:58;;;;;;;7.28;2.13;;;;;;;25.09;41.67;102081.22;4993707;28;20169;-65
2022/07/11 02:20:24;;;;;;;5.43;2.33;;;;;;;25.08;41.32;102088.59;4994694;28;20034;-65
2022/07/11 02:22:50;;;;;;;8.82;2.22;;;;;;;25.08;42.13;102093.22;4993292;28;20033;-65
2022/07/11 02:25:16;;;;;;;6.20;1.90;;;;;;;25.07;42.33;102097.03;4994642;28;20030;-65
2022/07/11 02:27:42;;;;;;;4.35;2.30;;;;;;;25.04;41.94;102097.41;4993508;28;20038;-65
2022/07/11 02:30:07;;;;;;;7.68;3.00;;;;;;;25.03;41.59;102091.06;4994599;28;20038;-65
2022/07/11 02:32:33;;;;;;;5.30;2.50;;;;;;;25.01;42.39;102086.81;4993208;28;20459;-65
2022/07/11 02:34:58;;;;;;;6.65;2.38;;;;;;;24.97;42.14;102080.00;4993328;28;20093;-65
2022/07/11 02:37:24;;;;;;;5.85;2.40;;;;;;;24.90;42.02;102078.03;4994335;28;20061;-65
2022/07/11 02:39:49;;;;;;;5.00;1.98;;;;;;;24.89;42.38;102083.72;4993207;28;20488;-64
2022/07/11 02:42:14;;;;;;;5.75;2.42;;;;;;;24.81;42.06;102081.97;4993038;28;20026;-64
2022/07/11 02:44:40;;;;;;;5.22;2.22;;;;;;;24.76;42.11;102081.63;4994382;28;20041;-64
2022/07/11 02:47:06;;;;;;;4.38;2.38;;;;;;;24.71;42.70;102086.84;4993190;28;20034;-64
2022/07/11 02:49:32;;;;;;;6.75;2.65;;;;;;;24.66;42.42;102086.56;4994178;28;20401;-64
2022/07/11 02:51:57;;;;;;;3.58;1.80;;;;;;;24.61;42.49;102091.78;4993107;28;20023;-65
2022/07/11 02:54:23;;;;;;;5.82;2.45;;;;;;;24.55;42.02;102092.53;4994143;28;20560;-65
2022/07/11 02:56:48;;;;;;;5.88;2.53;;;;;;;24.49;42.44;102093.28;4976507;28;20034;-65
2022/07/11 02:59:14;;;;;;;3.78;2.03;;;;;;;24.41;42.30;102098.84;4993101;28;20534;-64
2022/07/11 03:01:41;;;;;;;6.05;3.00;;;;;;;24.35;42.72;102091.38;4992492;28;20045;-64
2022/07/11 03:04:07;;;;;;;3.20;2.55;;;;;;;24.33;42.98;102101.69;4993012;28;20050;-64
2022/07/11 03:06:32;;;;;;;4.85;2.80;;;;;;;24.29;43.06;102089.41;4976711;28;20029;-65
2022/07/11 03:08:58;;;;;;;4.53;2.53;;;;;;;24.28;43.13;102093.19;4976569;28;20034;-64
2022/07/11 03:11:23;;;;;;;6.35;3.47;;;;;;;24.27;43.10;102094.22;4976621;28;20116;-64
2022/07/11 03:13:48;;;;;;;9.93;3.05;;;;;;;24.27;43.27;102097.81;4992828;28;20034;-64
2022/07/11 03:16:14;;;;;;;10.63;3.80;;;;;;;24.25;42.87;102096.31;5008944;28;20476;-64
2022/07/11 03:18:39;;;;;;;7.95;2.90;;;;;;;24.26;43.10;102098.03;4976416;28;20396;-64
2022/07/11 03:21:05;;;;;;;5.32;2.63;;;;;;;24.23;43.56;102087.44;4993058;28;20081;-64
2022/07/11 03:23:30;;;;;;;7.32;3.25;;;;;;;24.25;43.61;102099.03;4993767;28;20022;-64
2022/07/11 03:25:55;;;;;;;3.83;2.80;;;;;;;24.24;43.69;102108.28;4992720;28;20042;-64
2022/07/11 03:28:21;;;;;;;6.82;2.92;;;;;;;24.23;43.81;102103.88;4976442;28;20113;-64
2022/07/11 03:30:46;;;;;;;7.22;3.50;;;;;;;24.21;43.77;102092.22;4993613;28;20085;-64
2022/07/11 03:33:11;;;;;;;5.82;3.00;;;;;;;24.21;43.63;102095.81;4992544;28;20369;-64
2022/07/11 03:35:43;;;;;;;4.63;3.15;;;;;;;24.22;43.18;102099.41;4992544;28;20125;-64
2022/07/11 03:38:09;;;;;;;8.50;3.53;;;;;;;24.18;43.24;102103.56;4992672;28;20046;-64
2022/07/11 03:40:34;;;;;;;9.38;2.95;;;;;;;24.13;43.78;102100.53;4992472;28;20022;-64
2022/07/11 03:43:00;;;;;;;6.57;2.58;;;;;;;24.09;43.15;102101.94;4976261;28;20041;-64
2022/07/11 03:45:26;;;;;;;5.88;2.53;;;;;;;24.06;43.83;102096.81;4993790;28;20146;-64
2022/07/11 03:47:51;;;;;;;11.35;3.20;;;;;;;24.03;43.54;102097.19;4993557;28;20038;-65
2022/07/11 03:50:17;;;;;;;8.80;2.65;;;;;;;24.00;43.50;102111.25;4992430;28;20054;-64
2022/07/11 03:52:43;;;;;;;6.20;2.55;;;;;;;23.97;43.07;102111.63;4993574;28;20097;-64
2022/07/11 03:55:09;;;;;;;6.18;2.60;;;;;;;23.93;43.11;102113.88;4992420;28;20065;-64
2022/07/11 03:57:35;;;;;;;4.25;2.83;;;;;;;23.89;43.47;102111.69;4992323;28;20050;-64
2022/07/11 04:00:04;;;;;;;6.97;3.90;;;;;;;23.88;44.25;102112.72;4993639;28;20437;-64
2022/07/11 04:02:29;;;;;;;8.77;2.78;;;;;;;23.88;44.18;102115.44;4992162;28;20030;-64
2022/07/11 04:04:54;;;;;;;5.38;3.28;;;;;;;23.89;44.38;102114.44;4976077;28;20030;-64
2022/07/11 04:07:20;;;;;;;9.45;4.07;;;;;;;23.93;44.40;102113.00;4992185;28;20088;-64
2022/07/11 04:09:45;;;;;;;6.80;3.03;;;;;;;23.96;44.03;102118.13;4992248;28;20054;-64
2022/07/11 04:12:11;;;;;;;8.68;3.97;;;;;;;23.99;44.27;102124.06;4996174;28;20030;-64
2022/07/11 04:14:36;;;;;;;7.82;3.45;;;;;;;24.02;44.07;102122.84;4997172;28;20042;-64
2022/07/11 04:17:02;;;;;;;7.35;3.90;;;;;;;24.08;44.78;102122.13;4995947;28;20022;-64
2022/07/11 04:19:27;;;;;;;6.43;3.92;;;;;;;24.07;44.48;102114.94;4995965;28;20116;-64
2022/07/11 04:21:52;;;;;;;7.70;4.18;;;;;;;24.13;44.00;102120.56;4995584;28;20037;-64
2022/07/11 04:24:18;;;;;;;5.90;4.13;;;;;;;24.15;44.15;102114.88;4995757;28;20061;-64
2022/07/11 04:26:43;;;;;;;6.10;4.50;;;;;;;24.19;44.09;102117.06;4996861;28;20404;-64
2022/07/11 04:29:09;;;;;;;6.75;3.78;;;;;;;24.21;44.45;102120.47;4995599;28;20034;-64
2022/07/11 04:31:34;;;;;;;8.23;3.97;;;;;;;24.24;44.14;102116.50;4995552;28;20514;-64
2022/07/11 04:33:59;;;;;;;14.85;4.65;;;;;;;24.23;44.89;102114.81;4995696;28;20045;-64
2022/07/11 04:36:25;;;;;;;8.68;4.25;;;;;;;24.28;44.29;102120.59;4995672;28;20026;-64
2022/07/11 04:38:50;;;;;;;7.75;4.47;;;;;;;24.31;44.80;102122.94;4996988;28;20042;-64
2022/07/11 04:41:15;;;;;;;9.70;4.85;;;;;;;24.33;45.11;102118.13;4995339;28;20026;-64
2022/07/11 04:43:41;;;;;;;8.90;4.25;;;;;;;24.40;44.30;102118.22;4979117;28;20404;-64
2022/07/11 04:46:06;;;;;;;8.02;4.35;;;;;;;24.43;45.03;102124.16;4996586;28;20037;-64
2022/07/11 04:48:32;;;;;;;8.15;4.70;;;;;;;24.48;44.39;102124.47;4996359;28;20030;-64
2022/07/11 04:50:57;;;;;;;13.48;5.28;;;;;;;24.52;44.97;102125.78;4996470;28;20119;-64
2022/07/11 04:53:23;;;;;;;13.73;4.68;;;;;;;24.54;44.80;102118.22;4995235;28;20045;-64
2022/07/11 04:55:48;;;;;;;5.82;4.72;;;;;;;24.59;44.94;102125.88;4995140;28;20029;-64
2022/07/11 04:58:14;;;;;;;13.07;4.50;;;;;;;24.60;44.92;102117.47;4996305;28;20022;-64
2022/07/11 05:00:39;;;;;;;9.45;4.63;;;;;;;24.66;44.50;102119.44;4978899;28;20093;-64
2022/07/11 05:03:05;;;;;;;7.43;4.43;;;;;;;24.70;45.03;102118.03;4995006;28;20480;-64
2022/07/11 05:05:30;;;;;;;8.52;5.30;;;;;;;24.72;44.91;102115.94;4994975;28;20034;-64
2022/07/11 05:07:56;;;;;;;11.82;4.85;;;;;;;24.75;45.24;102115.56;4996137;28;20034;-64
2022/07/11 05:10:21;;;;;;;8.80;4.55;;;;;;;24.82;44.91;102115.69;4995100;28;20027;-64
2022/07/11 05:12:46;;;;;;;10.90;5.05;;;;;;;24.85;45.09;102123.53;4994826;28;20057;-64
2022/07/11 05:15:12;;;;;;;12.18;5.07;;;;;;;24.90;44.70;102126.56;4978569;28;20034;-64
2022/07/11 05:17:38;;;;;;;9.13;5.30;;;;;;;24.93;44.51;102131.63;4994789;28;20492;-64
2022/07/11 05:20:04;;;;;;;10.68;4.07;;;;;;;24.95;45.22;102131.47;4994665;28;20026;-64
2022/07/11 05:22:29;;;;;;;9.27;4.30;;;;;;;24.94;45.08;102121.53;4994331;28;20074;-64
2022/07/11 05:24:55;;;;;;;10.48;5.28;;;;;;;25.02;45.10;102135.97;4994594;28;20036;-64
2022/07/11 05:27:20;;;;;;;7.68;4.70;;;;;;;25.06;44.48;102133.72;4994602;28;20053;-64
2022/07/11 05:29:46;;;;;;;9.93;4.53;;;;;;;25.09;45.23;102125.97;4994562;28;20034;-64
2022/07/11 05:32:11;;;;;;;12.98;4.63;;;;;;;25.18;44.38;102127.53;4978131;28;20420;-64
2022/07/11 05:34:37;;;;;;;7.28;4.38;;;;;;;25.27;44.92;102131.84;4995628;28;20037;-64
2022/07/11 05:37:02;;;;;;;8.57;3.75;;;;;;;25.35;44.87;102134.47;4994395;28;20065;-64
2022/07/11 05:39:28;;;;;;;7.45;3.58;;;;;;;25.43;44.98;102130.78;4994604;28;20077;-64
2022/07/11 05:41:53;;;;;;;8.15;4.32;;;;;;;25.48;44.34;102133.81;4994291;28;20085;-64
2022/07/11 05:44:19;;;;;;;6.93;3.30;;;;;;;25.58;44.87;102149.94;4995565;28;20046;-64
2022/07/11 05:46:45;;;;;;;7.78;3.70;;;;;;;25.61;44.40;102146.81;4995451;28;20037;-64
2022/07/11 05:49:12;;;;;;;5.90;3.63;;;;;;;25.63;44.56;102147.50;4995315;28;20110;-64
2022/07/11 05:51:37;;;;;;;11.15;4.03;;;;;;;25.66;44.73;102147.94;4994205;28;20392;-64
2022/07/11 05:54:03;;;;;;;8.65;4.10;;;;;;;25.70;44.66;102156.63;4995240;28;20034;-64
2022/07/11 05:56:29;;;;;;;6.95;3.60;;;;;;;25.76;44.83;102161.34;4995291;28;20476;-64
2022/07/11 05:58:55;;;;;;;9.18;4.05;;;;;;;25.81;44.81;102156.97;4995181;28;20031;-64
2022/07/11 06:01:21;;;;;;;8.32;3.22;;;;;;;25.87;44.60;102156.19;4995130;28;20365;-64
2022/07/11 06:03:47;;;;;;;6.40;2.80;;;;;;;25.91;44.69;102151.97;4993875;28;20026;-64
2022/07/11 06:06:12;;;;;;;14.02;3.72;;;;;;;25.99;44.34;102153.75;4993785;28;20376;-65
2022/07/11 06:08:41;;;;;;;7.55;2.78;;;;;;;26.04;44.54;102154.84;4995248;28;20104;-65
2022/07/11 06:11:07;;;;;;;6.47;3.45;;;;;;;26.10;44.03;102160.59;4995037;28;20064;-65
2022/07/11 06:13:33;;;;;;;13.23;3.15;;;;;;;26.15;44.56;102160.88;4993760;28;20018;-64
2022/07/11 06:15:59;;;;;;;7.78;2.88;;;;;;;26.19;43.99;102162.16;4993703;28;20062;-64
2022/07/11 06:18:24;;;;;;;6.43;3.20;;;;;;;26.25;44.38;102159.47;4977354;28;20396;-63
2022/07/11 06:20:50;;;;;;;10.05;3.72;;;;;;;26.30;44.18;102164.41;4993593;28;20034;-64
2022/07/11 06:23:16;;;;;;;6.07;3.08;;;;;;;26.32;43.87;102165.91;4993485;28;20050;-64
2022/07/11 06:25:41;;;;;;;5.25;2.83;;;;;;;26.37;43.92;102168.88;4977260;28;20124;-64
2022/07/11 06:28:07;;;;;;;9.00;2.80;;;;;;;26.42;43.85;102171.03;4994704;28;20026;-65
2022/07/11 06:30:32;;;;;;;4.45;2.10;;;;;;;26.45;43.94;102165.97;4993369;28;20030;-64
2022/07/11 06:32:58;;;;;;;5.10;2.60;;;;;;;26.50;43.76;102174.47;4992861;28;20050;-65
2022/07/11 06:35:23;;;;;;;7.32;2.53;;;;;;;26.54;43.72;102161.19;4992811;28;20151;-65
2022/07/11 06:37:49;;;;;;;9.77;3.22;;;;;;;26.63;44.03;102158.03;4993264;28;20034;-65
2022/07/11 06:40:17;;;;;;;4.15;2.10;;;;;;;26.70;43.81;102152.59;4993318;28;20097;-65
2022/07/11 06:42:43;;;;;;;3.35;2.22;;;;;;;26.78;43.66;102157.97;4993197;28;20361;-65
2022/07/11 06:45:09;;;;;;;7.10;2.10;;;;;;;26.83;43.51;102162.88;4993088;28;20033;-65
2022/07/11 06:47:34;;;;;;;3.47;1.95;;;;;;;26.86;43.65;102157.78;4993420;28;20058;-64
2022/07/11 06:49:59;;;;;;;14.73;2.08;;;;;;;26.88;43.54;102152.97;4994191;28;20059;-63
2022/07/11 06:52:25;;;;;;;5.63;1.98;;;;;;;26.87;43.98;102148.50;4993035;28;20088;-64
2022/07/11 06:54:50;;;;;;;4.03;2.50;;;;;;;26.88;43.54;102150.22;4994196;28;20030;-64
2022/07/11 06:57:16;;;;;;;6.88;2.55;;;;;;;26.92;43.49;102156.97;4994205;28;20392;-64
2022/07/11 06:59:41;;;;;;;4.82;2.47;;;;;;;26.94;43.53;102154.88;4993223;28;20030;-66
2022/07/11 07:02:06;;;;;;;6.45;2.10;;;;;;;26.95;42.86;102153.81;4992676;28;20027;-64
2022/07/11 07:04:32;;;;;;;6.90;2.10;;;;;;;26.96;43.54;102165.69;4994119;28;20034;-64
2022/07/11 07:06:59;;;;;;;13.15;4.32;;;;;;;26.96;43.14;102161.03;4992929;28;20440;-66
2022/07/11 07:09:26;;;;;;;4.57;2.10;;;;;;;26.95;43.58;102161.22;4992839;28;20407;-64
2022/07/11 07:11:51;;;;;;;7.22;2.88;;;;;;;26.91;43.50;102165.44;4993983;28;20504;-65
2022/07/11 07:14:16;;;;;;;3.13;2.15;;;;;;;26.88;43.33;102171.34;4993999;28;20026;-64
2022/07/11 07:16:42;;;;;;;9.40;1.77;;;;;;;26.84;43.70;102176.41;4976592;28;20101;-64
2022/07/11 07:19:07;;;;;;;5.97;2.03;;;;;;;26.83;43.82;102177.44;4976556;28;20034;-64
2022/07/11 07:21:32;;;;;;;5.82;1.90;;;;;;;26.83;43.26;102173.88;4992564;28;20120;-65
2022/07/11 07:23:58;;;;;;;4.20;1.85;;;;;;;26.82;43.68;102167.53;4993744;28;20038;-65
2022/07/11 07:26:23;;;;;;;6.35;1.77;;;;;;;26.81;43.36;102164.97;4992604;28;20480;-64
2022/07/11 07:28:49;;;;;;;6.32;1.63;;;;;;;26.81;43.39;102174.06;5000957;28;20037;-64
2022/07/11 07:31:15;;;;;;;3.72;1.50;;;;;;;26.81;43.72;102176.81;5006322;28;20053;-64
2022/07/11 07:33:40;;;;;;;6.00;2.08;;;;;;;26.80;43.21;102169.59;5006983;28;20026;-65
2022/07/11 07:36:06;;;;;;;5.18;1.70;;;;;;;26.82;43.12;102183.16;5010234;28;20037;-64
2022/07/11 07:38:31;;;;;;;4.15;3.00;;;;;;;26.82;43.52;102167.53;5003775;28;20034;-64
2022/07/11 07:40:57;;;;;;;6.60;1.77;;;;;;;26.82;43.06;102173.03;5002586;28;20034;-64
2022/07/11 07:43:22;;;;;;;2.92;1.73;;;;;;;26.82;43.51;102164.78;4999903;28;20484;-63
2022/07/11 07:45:47;;;;;;;4.20;2.60;;;;;;;26.82;43.44;102172.16;5005053;28;20492;-64
2022/07/11 07:48:13;;;;;;;4.03;1.60;;;;;;;26.84;43.39;102175.56;5005097;28;20029;-64
2022/07/11 07:50:38;;;;;;;3.10;1.80;;;;;;;26.80;43.70;102172.34;5006431;28;20030;-64
2022/07/11 07:53:03;;;;;;;9.88;2.00;;;;;;;26.81;43.44;102171.31;4987446;28;20484;-64
2022/07/11 07:55:29;;;;;;;3.75;1.63;;;;;;;26.83;43.75;102168.38;5005488;28;20403;-65
2022/07/11 07:57:54;;;;;;;5.43;2.17;;;;;;;26.82;43.37;102170.28;5005789;28;20041;-64
2022/07/11 08:03:08;;;;;;;3.70;1.70;;;;;;;26.93;43.06;102164.19;5003067;28;20126;-64
2022/07/11 08:05:34;;;;;;;4.28;1.42;;;;;;;26.96;43.46;102155.53;5004211;28;20018;-64
2022/07/11 08:08:00;;;;;;;2.42;1.40;;;;;;;27.01;43.22;102150.25;5003889;28;20510;-64
2022/07/11 08:10:25;;;;;;;4.00;1.67;;;;;;;27.10;42.82;102154.53;5006702;28;20030;-65
2022/07/11 08:12:51;;;;;;;6.85;1.52;;;;;;;27.13;42.87;102148.63;5004997;28;20527;-64
2022/07/11 08:15:16;;;;;;;2.70;1.45;;;;;;;27.16;43.30;102142.69;5006445;28;20029;-66
2022/07/11 08:17:41;;;;;;;2.15;1.20;;;;;;;27.23;43.06;102153.72;4999039;28;20026;-64
2022/07/11 08:20:07;;;;;;;2.97;1.30;;;;;;;27.27;42.76;102156.94;5015432;28;20036;-64
2022/07/11 08:22:33;;;;;;;4.22;1.83;;;;;;;27.30;42.99;102151.00;5015178;28;20037;-64
2022/07/11 08:24:58;;;;;;;7.05;1.70;;;;;;;27.32;42.71;102157.16;5015433;28;20034;-64
2022/07/11 08:27:24;;;;;;;2.63;1.10;;;;;;;27.33;42.87;102158.84;5015458;28;20040;-64
2022/07/11 08:29:49;;;;;;;3.15;1.10;;;;;;;27.35;42.55;102159.50;4998967;28;20048;-64
2022/07/11 08:32:14;;;;;;;4.40;1.50;;;;;;;27.35;42.35;102156.75;5016199;28;20046;-65
2022/07/11 08:34:40;;;;;;;1.55;1.13;;;;;;;27.35;42.94;102167.75;5014379;28;20046;-65
2022/07/11 08:37:05;;;;;;;3.65;1.58;;;;;;;27.35;42.76;102162.25;5013397;28;20022;-65
2022/07/11 08:39:30;;;;;;;7.13;1.58;;;;;;;27.39;42.99;102171.75;5016514;28;20034;-65
2022/07/11 08:41:56;;;;;;;12.50;2.05;;;;;;;27.39;42.65;102160.75;5014964;28;20036;-65
2022/07/11 08:44:22;;;;;;;3.83;1.60;;;;;;;27.41;43.24;102166.97;5015031;28;20037;-65
2022/07/11 08:46:49;;;;;;;4.32;1.77;;;;;;;27.42;42.62;102165.88;5014994;28;20026;-65
2022/07/11 08:49:14;;;;;;;4.18;1.75;;;;;;;27.41;43.08;102161.44;5016013;28;20029;-64
2022/07/11 08:51:41;;;;;;;1.88;1.30;;;;;;;27.41;42.65;102166.97;5016039;28;20026;-64
2022/07/11 08:54:06;;;;;;;4.63;1.55;;;;;;;27.40;43.30;102176.22;5016092;28;20503;-64
2022/07/11 08:56:32;;;;;;;6.35;1.90;;;;;;;27.39;42.38;102174.50;5014085;28;20026;-65
2022/07/11 08:59:00;;;;;;;6.82;1.70;;;;;;;27.36;43.09;102175.78;5014761;28;20503;-65
2022/07/11 09:01:34;;;;;;;3.28;1.40;;;;;;;27.35;43.15;102179.63;4994987;28;20117;-65
2022/07/11 09:04:00;;;;;;;2.40;1.67;;;;;;;27.32;42.70;102176.41;4995341;28;20050;-65
2022/07/11 09:06:26;;;;;;;6.97;1.20;;;;;;;27.34;43.05;102177.03;4994936;28;20456;-64
2022/07/11 09:08:52;;;;;;;5.40;1.60;;;;;;;27.39;42.87;102177.28;4996184;28;20066;-64
2022/07/11 09:11:17;;;;;;;2.55;1.42;;;;;;;27.44;42.97;102172.06;4994716;28;20377;-64
2022/07/11 09:13:42;;;;;;;7.22;1.55;;;;;;;27.49;43.23;102172.28;4994941;28;20031;-65
2022/07/11 09:16:09;;;;;;;5.60;1.15;;;;;;;27.54;42.97;102175.25;4994714;28;20093;-65
2022/07/11 09:18:39;;;;;;;4.65;1.20;;;;;;;27.64;42.47;102176.53;4994910;28;20535;-66
2022/07/11 09:26:44;;;;;;;5.85;1.13;;;;;;;28.14;42.31;102172.38;4994885;28;20088;-65
2022/07/11 09:29:14;;;;;;;2.83;1.23;;;;;;;28.24;41.74;102175.56;4996098;28;20022;-65
2022/07/11 09:31:41;;;;;;;2.75;1.35;;;;;;;28.30;42.09;102169.22;4994375;28;20189;-66
2022/07/11 09:34:15;;;;;;;2.25;1.70;;;;;;;28.39;41.44;102172.59;5003642;28;20029;-65
2022/07/11 09:36:52;;;;;;;3.28;1.75;;;;;;;28.45;42.10;102171.72;5014069;28;20488;-66
2022/07/11 09:39:19;;;;;;;5.60;1.50;;;;;;;28.55;41.30;102168.53;4997871;28;20025;-66
2022/07/11 09:41:46;;;;;;;6.72;1.60;;;;;;;28.60;41.38;102155.81;5013977;28;20392;-66
2022/07/11 09:44:22;;;;;;;4.53;2.00;;;;;;;28.68;41.20;102154.75;5013886;28;20109;-65
2022/07/11 09:46:49;;;;;;;2.65;1.85;;;;;;;28.70;41.50;102158.16;5013767;28;20034;-66
2022/07/11 09:49:16;;;;;;;2.13;1.88;;;;;;;28.73;41.37;102150.28;5013682;28;20057;-66
2022/07/11 09:51:43;;;;;;;4.57;1.92;;;;;;;28.81;41.40;102160.25;5015005;28;20044;-65
2022/07/11 09:54:09;;;;;;;2.50;2.00;;;;;;;28.93;41.07;102158.50;5030141;28;20038;-65
2022/07/11 09:56:35;;;;;;;3.60;2.10;;;;;;;29.14;40.36;102166.50;5013727;28;20037;-65
2022/07/11 09:59:02;;;;;;;3.30;1.35;;;;;;;29.32;41.17;102151.97;5013583;28;20471;-66
2022/07/11 10:01:30;;;;;;;2.47;1.50;;;;;;;29.47;40.97;102159.97;5013659;28;20051;-66
2022/07/11 10:03:56;;;;;;;4.32;1.60;;;;;;;29.55;40.57;102162.47;5029619;28;20034;-67
2022/07/11 10:06:22;;;;;;;2.80;1.63;;;;;;;29.52;40.16;102162.91;5029970;28;20390;-66
2022/07/11 10:08:50;;;;;;;2.67;1.73;;;;;;;29.48;40.92;102164.44;5028832;28;20109;-66
2022/07/11 10:11:15;;;;;;;3.33;1.58;;;;;;;29.41;40.05;102157.03;5013415;28;20058;-65
2022/07/11 10:13:41;;;;;;;2.35;1.52;;;;;;;29.34;40.96;102161.72;5014578;28;20432;-65
2022/07/11 10:16:23;;;;;;;4.38;1.65;;;;;;;29.29;40.21;102164.31;5013400;28;20103;-64
2022/07/11 10:19:29;;;;;;;5.03;1.60;;;;;;;29.26;40.18;102159.22;5013272;28;20088;-65
2022/07/11 10:22:17;;;;;;;3.90;1.40;;;;;;;29.27;40.97;102160.94;5013167;28;20017;-65
2022/07/11 10:24:50;;;;;;;2.33;1.95;;;;;;;29.28;39.95;102170.91;5014258;28;20104;-65
2022/07/11 10:27:39;;;;;;;4.68;1.80;;;;;;;29.30;40.59;102170.69;5014302;28;20022;-65
2022/07/11 10:30:05;;;;;;;2.40;1.52;;;;;;;29.27;40.31;102169.22;5013700;28;20511;-65
2022/07/11 10:32:30;;;;;;;3.38;1.85;;;;;;;29.23;40.77;102176.22;5012525;28;20054;-65
2022/07/11 10:35:09;;;;;;;2.42;1.70;;;;;;;29.16;40.10;102169.88;5014101;28;20202;-65
2022/07/11 10:37:54;;;;;;;4.10;1.92;;;;;;;29.09;40.04;102174.56;5014096;28;20510;-65
2022/07/11 10:40:47;;;;;;;2.72;2.03;;;;;;;29.04;40.85;102168.84;5014081;28;20029;-65
2022/07/11 10:43:33;;;;;;;4.75;1.85;;;;;;;28.94;40.98;102171.22;5013971;28;20124;-65
2022/07/11 10:45:58;;;;;;;3.30;1.58;;;;;;;28.89;40.78;102168.28;5014041;28;20515;-65
2022/07/11 10:48:25;;;;;;;1.98;1.15;;;;;;;28.85;41.08;102172.53;5013855;28;20092;-65
2022/07/11 10:51:14;;;;;;;4.57;1.60;;;;;;;28.86;40.69;102168.72;5012640;28;20056;-64
2022/07/11 10:53:46;;;;;;;1.95;1.50;;;;;;;28.86;40.99;102168.72;5012910;28;20022;-65
2022/07/11 10:56:45;;;;;;;2.15;1.80;;;;;;;28.88;40.19;102177.63;5012538;28;20022;-65
2022/07/11 10:59:16;;;;;;;3.67;1.90;;;;;;;28.89;40.25;102174.63;5013751;28;20022;-65
2022/07/11 11:02:10;;;;;;;2.47;1.52;;;;;;;28.94;40.09;102176.75;5012571;28;20030;-65
2022/07/11 11:04:42;;;;;;;3.45;1.70;;;;;;;29.01;40.72;102177.56;5012473;28;20038;-65
2022/07/11 11:07:29;;;;;;;3.90;1.98;;;;;;;29.04;40.73;102171.59;5013589;28;20053;-65
2022/07/11 11:09:55;;;;;;;3.45;1.75;;;;;;;29.09;40.28;102174.56;5013598;28;20030;-65
2022/07/11 11:12:59;;;;;;;5.15;2.50;;;;;;;29.16;39.93;102180.91;5012627;28;20029;-65
2022/07/11 11:15:34;;;;;;;3.53;1.88;;;;;;;29.22;39.88;102180.06;5013506;28;20519;-66
2022/07/11 11:18:39;;;;;;;3.15;1.85;;;;;;;29.29;40.59;102178.13;5012413;28;20030;-65
2022/07/11 11:21:07;;;;;;;3.40;2.13;;;;;;;29.35;39.66;102180.00;5009125;28;20038;-65
2022/07/11 11:23:44;;;;;;;4.43;2.20;;;;;;;29.41;40.57;102178.28;5013516;28;20033;-65
2022/07/11 11:26:14;;;;;;;4.15;2.00;;;;;;;29.49;39.70;102179.94;5028666;28;20081;-65
2022/07/11 11:28:56;;;;;;;6.45;1.55;;;;;;;29.59;40.18;102185.84;5013376;28;20106;-66
2022/07/11 11:31:22;;;;;;;4.15;2.10;;;;;;;29.67;39.33;102183.66;5012365;28;20041;-65
2022/07/11 11:33:47;;;;;;;4.95;2.00;;;;;;;29.73;40.24;102179.16;4995550;28;20050;-65